createdAt,value
2023-10-17T08:08:02.450Z,99.90
2023-10-17T08:12:56.145Z,99.90
2023-10-17T08:17:50.556Z,99.90
2023-10-17T08:22:58.024Z,99.90
2023-10-17T08:27:55.705Z,99.90
2023-10-17T08:32:56.846Z,99.90
2023-10-17T08:37:53.769Z,99.90
2023-10-17T08:42:51.318Z,99.90
2023-10-17T08:47:47.590Z,99.90
2023-10-17T08:52:42.946Z,99.90
2023-10-17T08:57:38.751Z,99.90
2023-10-17T09:02:34.045Z,99.90
2023-10-17T09:07:33.937Z,99.90
2023-10-17T09:12:27.501Z,99.90
2023-10-17T09:17:31.954Z,99.90
2023-10-17T09:22:45.305Z,99.90
2023-10-17T09:27:38.922Z,99.90
2023-10-17T09:32:37.219Z,99.90
2023-10-17T09:37:31.608Z,99.90
2023-10-17T09:42:27.592Z,99.90
2023-10-17T09:47:25.348Z,99.90
2023-10-17T09:52:22.691Z,99.90
2023-10-17T09:57:21.846Z,99.90
2023-10-17T10:02:21.661Z,99.90
2023-10-17T10:07:22.607Z,99.90
2023-10-17T10:12:16.841Z,99.90
2023-10-17T10:17:10.926Z,99.90
2023-10-17T10:22:08.044Z,99.90
2023-10-17T10:27:22.235Z,99.90
2023-10-17T10:32:35.818Z,99.90
2023-10-17T10:37:31.114Z,99.90
2023-10-17T10:42:27.190Z,99.90
2023-10-17T10:47:20.868Z,99.90
2023-10-17T10:52:14.748Z,99.90
2023-10-17T10:57:10.036Z,99.90
2023-10-17T11:02:04.046Z,99.90
2023-10-17T11:06:57.580Z,99.90
2023-10-17T11:11:52.386Z,99.90
2023-10-17T11:16:51.945Z,99.90
2023-10-17T11:21:46.090Z,99.50
2023-10-17T11:26:42.389Z,98.40
2023-10-17T11:31:36.795Z,98.90
2023-10-17T11:36:37.154Z,97.80
2023-10-17T11:41:32.896Z,97.70
2023-10-17T11:46:33.402Z,95.80
2023-10-17T11:51:30.515Z,96.40
2023-10-17T11:56:27.858Z,93.90
2023-10-17T12:01:21.560Z,95.10
2023-10-17T12:06:18.396Z,95.40
2023-10-17T12:11:12.477Z,95.80
2023-10-17T12:16:11.226Z,93.60
2023-10-17T12:21:06.064Z,94.20
2023-10-17T12:26:02.907Z,94.00
2023-10-17T12:30:56.899Z,94.00
2023-10-17T12:35:53.488Z,92.50
2023-10-17T12:40:47.508Z,91.10
2023-10-17T12:45:41.511Z,91.60
2023-10-17T12:50:36.668Z,91.70
2023-10-17T12:55:31.964Z,90.00
2023-10-17T13:00:29.180Z,84.50
2023-10-17T13:05:23.140Z,78.50
2023-10-17T13:10:17.038Z,77.20
2023-10-17T13:15:16.946Z,70.90
2023-10-17T13:20:19.494Z,65.90
2023-10-17T13:25:23.839Z,65.30
2023-10-17T13:30:20.533Z,62.90
2023-10-17T13:35:14.418Z,60.10
2023-10-17T13:40:11.626Z,59.80
2023-10-17T13:45:06.880Z,62.30
2023-10-17T13:50:02.138Z,60.70
2023-10-17T13:54:55.749Z,59.40
2023-10-17T13:59:54.686Z,59.80
2023-10-17T14:04:49.035Z,60.20
2023-10-17T14:09:44.516Z,58.90
2023-10-17T14:14:38.109Z,62.20
2023-10-17T14:19:38.626Z,64.70
2023-10-17T14:24:51.167Z,65.40
2023-10-17T14:29:47.036Z,66.40
2023-10-17T14:34:40.654Z,63.90
2023-10-17T14:39:34.820Z,59.00
2023-10-17T14:44:30.436Z,57.40
2023-10-17T14:49:25.898Z,59.40
2023-10-17T14:54:19.539Z,66.40
2023-10-17T14:59:13.229Z,73.40
2023-10-17T15:04:07.362Z,79.50
2023-10-17T15:09:04.926Z,84.00
2023-10-17T15:13:58.569Z,87.50
2023-10-17T15:18:53.523Z,90.00
2023-10-17T15:23:47.648Z,91.20
2023-10-17T15:28:45.991Z,92.60
2023-10-17T15:33:40.529Z,93.70
2023-10-17T15:38:35.250Z,94.80
2023-10-17T15:43:29.098Z,95.40
2023-10-17T15:48:25.363Z,96.30
2023-10-17T15:53:19.263Z,97.20
2023-10-17T15:58:13.081Z,98.20
2023-10-17T16:03:06.947Z,99.00
2023-10-17T16:08:02.332Z,99.90
2023-10-17T16:12:55.979Z,99.90
2023-10-17T16:17:49.849Z,99.90
2023-10-17T16:22:43.689Z,99.90
2023-10-17T16:27:39.233Z,99.90
2023-10-17T16:32:33.570Z,99.90
2023-10-17T16:37:27.292Z,99.90
2023-10-17T16:42:21.345Z,99.90
2023-10-17T16:47:16.711Z,99.90
2023-10-17T16:52:11.325Z,99.90
2023-10-17T16:57:06.598Z,99.90
2023-10-17T17:02:00.754Z,99.90
2023-10-17T17:06:55.945Z,99.90
2023-10-17T17:11:49.923Z,99.90
2023-10-17T17:16:44.741Z,99.90
2023-10-17T17:21:38.772Z,99.90
